Terminal Aerodrome Forecast
Issued by NWS

Home | Current Version | Previous Version | Graphics & Text | Print | Product List | Glossary On
Versions: 1 2 3 4 5 6 7 8 9 10 11 12 13 14 15 16
000
FTUS43 KGRB 270520
TAFAUW
TAF
KAUW 270520Z 2706/2806 17004KT P6SM SCT080
     FM270800 19004KT 5SM BR SCT040 SCT080
      TEMPO 2708/2712 2SM BR BKN003
     FM271300 21005KT P6SM SCT015 SCT040
     FM271600 25008KT P6SM SCT050 SCT090
     FM272300 28006KT P6SM BKN080=

USA.gov is the U.S. government's official web portal to all federal, state and local government web resources and services.